Kaaawa, HI (96730)

10:58 AM HST on August 29, 2015 (GMT -1000)
Lile Place | | Change Station
CLOSE
Current Station
Personal Weather Station
Location: Kaneohe, HI
Elevation: 341 ft
Nearby Weather Stations

Elev 341 ft 21.43 °N, 157.84 °W | Updated 14 minutes ago

Mostly Cloudy
Mostly Cloudy
90.1 °F
Feels Like 102 °F
N
4.7
Wind Variable Wind from NE

Today
High -- | Low -- °F
--% Chance of Precip.
Yesterday
High -- | Low -- °F
Precip. -- in
6:13 AM 6:50 PM
Full, 100% visible
Pressure 29.89 in
Visibility -9999.0 miles
Clouds Few 400 ft
Mostly Cloudy 2300 ft
Heat Index 102 °F
Dew Point 76 °F
Humidity 64%
Rainfall 0.00 in
Snow Depth Not available.
UV 5 out of 12
Pollen Not available.
Air Quality Not available.
Flu Activity Not available.
SPECI PHNG 292028Z AUTO 06008KT FEW004 BKN023 29/23 A2989 RMK AO2 T02890233 $
Pressure 29.89 in
Visibility -9999.0 miles
Clouds Few 400 ft
Mostly Cloudy 2300 ft
Heat Index 102 °F
Dew Point 76 °F
Humidity 64%
Rainfall 0.00 in
Snow Depth Not available.
UV 5 out of 12
Pollen Not available.
Air Quality Not available.
Flu Activity Not available.
SPECI PHNG 292028Z AUTO 06008KT FEW004 BKN023 29/23 A2989 RMK AO2 T02890233 $
The busy hurricane season continues as Hurricane Ignacio may threaten The Big Island Monday. Ignacio is expected to strengthen into a Category 2 hurricane later today, before possibly weakening to a Category 1 storm Monday. The most likely scenario is that storm will pass to the north of Hawaii, there is enough difference is guidance to suggest that residents should prepare for the storm.

10-Day Weather Forecast

×

Almanac

Astronomy

Aug. 29, 2015 Rise Set
Actual Time
Civil Twilight
Nautical Twilight
Astronomical Twilight
Moon
Length of Visible Light
Length of Day
Tomorrow will be .
, % of the Moon is Illuminated

Today's Extremes

State Highs State Lows

Community

WunderPhotos

Upload Photos

1,850,793 photos uploaded!

WunderBlogs® & News

Nearby

Air Quality

  Air Quality AQ Index Pollutant
Not available.

Snow Depth

Station Depth Elevation

Earthquake Activity

City Distance Mag. Time & Date
Minimum magnitude displayed is 2.5.

Coastal Water Temperatures

Place Temperature

Stations

Nearby Weather Stations

Station Location Temp. Windchill Dew Point Humidity Wind Precip. Elev Updated Type